Aérodrome :
LOGIN :

S'inscrire | Disclaimer

   EN    FR    IT 

 










Légende :    VFR   VFR Marginal   IFR   IFR Intensif   IFR Très Intensif
Visi : 
Plafond : 
>= 8 km
>= 3000ft
5 à 8 km
1000 à 3000 ft
1500m à 5 km
500 à 1000 ft
800 à 1500m
200 à 500 ft
< 800m
< 200 ft
Symboles :   Orages  Brouillard  Fortes neiges  Fortes précipitations  Vent > 20 kt
SIGMETs :   Divers  Orages  Givrage  Turbulence  Onde Orograph.  Cendres Volcan.







- Altitude de l'aérodrome : 171 ft
- Code IATA : EGC
- Voir les cartes d'approche


LFBE - Bergerac

DERNIER METAR :
  • 181030Z AUTO 08006KT 050V140 CAVOK 20/14 Q1011 NOSIG

METARs EXPIRÉS :
  • 181000Z AUTO 07006KT 050V110 CAVOK 20/14 Q1011 NOSIG
  • 180930Z AUTO 07007KT CAVOK 19/14 Q1012 BECMG 15010KT
  • 180900Z AUTO 08006KT CAVOK 18/14 Q1012 BECMG 15010KT
  • 180830Z AUTO 06003KT CAVOK 16/13 Q1013 BECMG 15010KT

TAF TAF LFBE
Valide du 18 à 06h jusqu'au 19 à 06h UTC


180500Z 1806/1906 06005KT CAVOK
PROB30 1806/1808 1000 BCFG
BECMG 1807/1809 15010KT
TEMPO 1816/1820 28013KT 4000 SHRA BKN020
PROB40 1816/1819 24015G30KT 2500 TSRA BKN015CB
BECMG 1820/1822 VRB03KT BKN015
TEMPO 1822/1902 2500 RA BKN005
Pas de NOTAMs connus pour ce terrain.
1 SIGMET publié pour la FIR Bordeaux (LFBB) :
 
Orages noyés dans la masse
LFBB SIGMET 1 VALID 181100/181300 LFPW
LFBB BORDEAUX FIR/UIR EMBD TS OBS AT 1100Z S OF N4245 AND W OF E00145 TOP FL360 MOV NE 5KT NC=



MET'MAP, la Météo Aéronautique d'un coup d'oeil ! - Copyright ORBIFLY Décembre 2007 - Disclaimer

ORBIFLY MET'MAP TEAM :

Programmation & Développement : Alexandra Zaïnal
Conception & Développement : Baudouin d'Aumeries
Co-Programmation & Développement : Marc-Olivier Méhu
Soutien technique & logistique : Manuel Goepfert

Contact : metmap@orbifly.com




SOURCES & CREDITS :

   NOAA